Time;durP1;ratioP1;P1;durP2;ratioP2;P2;SDS_P1;SDS_P2;PMS_P1;PMS_P2;Temp;Humidity;BMP_temperature;BMP_pressure;BME280_temperature;BME280_humidity;BME280_pressure;Samples;Min_cycle;Max_cycle;Signal;HPM_P1;HPM_P2
2023/05/27 00:02:27;;;;;;;1.30;0.70;;;23.60;46.60;;;;;;6291503;28;20477;-51
2023/05/27 00:05:31;;;;;;;1.15;0.85;;;23.70;46.60;;;;;;6292080;28;20055;-51
2023/05/27 00:08:33;;;;;;;0.80;0.60;;;23.50;46.40;;;;;;6292469;28;20024;-54
2023/05/27 00:11:35;;;;;;;1.17;0.70;;;23.80;46.60;;;;;;6290494;28;20109;-53
2023/05/27 00:14:36;;;;;;;2.10;0.77;;;23.70;46.50;;;;;;6291889;28;20055;-53
2023/05/27 00:17:39;;;;;;;1.08;0.68;;;24.00;46.70;;;;;;6291864;28;20490;-54
2023/05/27 00:20:41;;;;;;;1.00;0.63;;;23.50;46.30;;;;;;6291935;28;20029;-53
2023/05/27 00:23:46;;;;;;;1.52;0.60;;;23.70;46.40;;;;;;6291808;28;20123;-53
2023/05/27 00:26:51;;;;;;;1.00;0.60;;;23.70;46.30;;;;;;6291633;28;20048;-54
2023/05/27 00:29:52;;;;;;;1.63;0.85;;;23.80;46.20;;;;;;6291940;28;20388;-52
2023/05/27 00:32:55;;;;;;;1.25;0.73;;;23.60;46.30;;;;;;6291839;28;20428;-51
2023/05/27 00:35:58;;;;;;;0.98;0.73;;;23.60;46.20;;;;;;6291901;28;20037;-52
2023/05/27 00:39:01;;;;;;;0.65;0.50;;;23.70;46.30;;;;;;6292162;28;20062;-53
2023/05/27 00:42:03;;;;;;;1.08;0.63;;;23.70;46.30;;;;;;6289761;28;20037;-53
2023/05/27 00:45:05;;;;;;;0.70;0.57;;;23.70;46.30;;;;;;6291742;28;20407;-54
2023/05/27 00:48:07;;;;;;;1.27;0.65;;;23.50;46.10;;;;;;6292157;28;20505;-54
2023/05/27 00:51:09;;;;;;;0.70;0.65;;;23.70;46.20;;;;;;6289807;28;20040;-52
2023/05/27 00:54:12;;;;;;;0.88;0.52;;;23.60;46.20;;;;;;6291551;28;20040;-54
2023/05/27 00:57:13;;;;;;;1.08;0.50;;;23.30;46.00;;;;;;6291454;28;20033;-53
2023/05/27 01:00:15;;;;;;;1.13;0.70;;;23.60;46.20;;;;;;6291459;28;20535;-54
2023/05/27 01:03:17;;;;;;;0.90;0.57;;;23.40;46.10;;;;;;6291036;28;20037;-54
2023/05/27 01:06:28;;;;;;;0.85;0.50;;;23.40;46.10;;;;;;6290557;28;20056;-53
2023/05/27 01:09:38;;;;;;;0.90;0.60;;;23.60;46.10;;;;;;6288945;28;20036;-54
2023/05/27 01:12:47;;;;;;;0.90;0.60;;;23.50;46.10;;;;;;6289149;28;20116;-52
2023/05/27 01:15:51;;;;;;;0.98;0.52;;;23.40;46.00;;;;;;6290447;28;20478;-51
2023/05/27 01:18:56;;;;;;;1.50;0.70;;;23.30;46.60;;;;;;6291149;28;20112;-51
2023/05/27 01:22:00;;;;;;;0.77;0.50;;;23.50;46.10;;;;;;6290919;28;20545;-52
2023/05/27 01:25:05;;;;;;;0.80;0.50;;;23.50;46.00;;;;;;6290639;28;20048;-52
2023/05/27 01:28:06;;;;;;;0.80;0.60;;;23.30;45.90;;;;;;6290749;28;20036;-54
2023/05/27 01:31:19;;;;;;;0.95;0.60;;;23.60;46.10;;;;;;6290622;28;20043;-54
2023/05/27 01:34:26;;;;;;;0.70;0.40;;;23.40;45.90;;;;;;6287406;28;20124;-55
2023/05/27 01:37:32;;;;;;;0.75;0.68;;;23.50;46.00;;;;;;6287494;28;20037;-53
2023/05/27 01:40:37;;;;;;;1.45;0.60;;;23.50;46.00;;;;;;6289299;28;20062;-55
2023/05/27 01:43:42;;;;;;;0.68;0.50;;;23.40;45.90;;;;;;6289164;28;20524;-53
2023/05/27 01:46:45;;;;;;;0.85;0.70;;;23.50;45.90;;;;;;6289116;28;20379;-52
2023/05/27 01:49:47;;;;;;;1.05;0.60;;;23.40;45.80;;;;;;6290144;28;20562;-54
2023/05/27 01:52:49;;;;;;;;;;;23.20;45.90;;;;;;6290713;28;20032;-51
2023/05/27 01:55:54;;;;;;;0.90;0.60;;;23.50;46.10;;;;;;6290318;28;19963;-55
2023/05/27 01:58:55;;;;;;;0.80;0.50;;;23.40;45.90;;;;;;6289126;28;20040;-54
2023/05/27 02:01:57;;;;;;;0.90;0.63;;;23.40;45.90;;;;;;6289579;28;20028;-54
2023/05/27 02:04:58;;;;;;;0.50;0.40;;;23.40;45.90;;;;;;6289649;28;20041;-52
2023/05/27 02:08:00;;;;;;;0.57;0.50;;;23.30;45.70;;;;;;6289546;28;20094;-53
2023/05/27 02:11:02;;;;;;;;;;;23.10;45.60;;;;;;6290633;28;20033;-54
2023/05/27 02:14:07;;;;;;;0.65;0.40;;;23.40;46.00;;;;;;6288836;28;19920;-54
2023/05/27 02:17:08;;;;;;;0.60;0.40;;;23.40;45.80;;;;;;6289768;28;20340;-53
2023/05/27 02:20:11;;;;;;;1.05;0.50;;;23.30;45.70;;;;;;6289674;28;20036;-53
2023/05/27 02:23:15;;;;;;;1.35;0.50;;;23.30;45.60;;;;;;6289820;28;20128;-54
2023/05/27 02:26:17;;;;;;;0.80;0.50;;;23.20;45.30;;;;;;6254635;28;20055;-53
2023/05/27 02:29:19;;;;;;;1.00;0.60;;;23.50;45.70;;;;;;6289805;28;20043;-54
2023/05/27 02:32:21;;;;;;;1.00;0.55;;;23.30;45.60;;;;;;6289375;28;20040;-54
2023/05/27 02:35:22;;;;;;;1.27;0.68;;;23.30;45.50;;;;;;6289292;28;20066;-55
2023/05/27 02:38:27;;;;;;;0.77;0.60;;;23.40;45.50;;;;;;6289300;28;20115;-55
2023/05/27 02:41:29;;;;;;;;;;;23.10;45.40;;;;;;6289949;28;20367;-53
2023/05/27 02:44:30;;;;;;;1.10;0.68;;;22.90;45.50;;;;;;6288153;28;19920;-49
2023/05/27 02:47:32;;;;;;;0.75;0.55;;;23.10;45.40;;;;;;6288419;28;20403;-53
2023/05/27 02:50:33;;;;;;;1.33;0.50;;;23.30;46.10;;;;;;6289273;28;20037;-54
2023/05/27 02:53:35;;;;;;;0.80;0.50;;;23.20;45.30;;;;;;6288895;28;20045;-52
2023/05/27 02:56:37;;;;;;;0.88;0.50;;;23.20;45.20;;;;;;6288862;28;20044;-52
2023/05/27 02:59:39;;;;;;;0.80;0.40;;;23.30;45.20;;;;;;6289377;28;20037;-53
2023/05/27 03:02:40;;;;;;;;;;;23.30;45.10;;;;;;6289842;28;20044;-53
2023/05/27 03:05:42;;;;;;;0.90;0.50;;;23.10;45.20;;;;;;6288696;28;19927;-54
2023/05/27 03:08:43;;;;;;;0.90;0.50;;;23.20;45.10;;;;;;6288900;28;20091;-54
2023/05/27 03:11:45;;;;;;;;;;;23.10;45.00;;;;;;6289477;28;20519;-54
2023/05/27 03:14:46;;;;;;;1.20;0.52;;;23.30;45.20;;;;;;6288413;28;19920;-53
2023/05/27 03:17:49;;;;;;;1.13;0.70;;;22.80;44.80;;;;;;6288443;28;20040;-54
2023/05/27 03:20:52;;;;;;;0.85;0.60;;;23.10;44.80;;;;;;6288473;28;20037;-54
2023/05/27 03:23:54;;;;;;;0.95;0.60;;;23.20;44.80;;;;;;6288703;28;20124;-53
2023/05/27 03:26:56;;;;;;;0.77;0.60;;;23.10;44.70;;;;;;6292047;28;20104;-54
2023/05/27 03:29:58;;;;;;;1.10;0.70;;;23.10;44.60;;;;;;6292645;28;20403;-54
2023/05/27 03:33:01;;;;;;;0.70;0.55;;;23.20;44.60;;;;;;6292640;28;20526;-54
2023/05/27 03:36:09;;;;;;;0.80;0.50;;;23.10;44.50;;;;;;6292596;28;20060;-54
2023/05/27 03:39:14;;;;;;;0.93;0.50;;;23.20;44.60;;;;;;6292407;28;20032;-53
2023/05/27 03:42:22;;;;;;;;;;;23.10;44.50;;;;;;6291866;28;20407;-53
2023/05/27 03:45:25;;;;;;;0.60;0.52;;;23.20;44.80;;;;;;6292687;28;19920;-51
2023/05/27 03:48:27;;;;;;;0.80;0.50;;;23.20;44.80;;;;;;6292390;28;20537;-53
2023/05/27 03:51:31;;;;;;;1.05;0.70;;;23.10;44.70;;;;;;6292148;28;20358;-55
2023/05/27 03:54:35;;;;;;;1.35;0.77;;;23.20;44.80;;;;;;6292005;28;20233;-53
2023/05/27 03:57:37;;;;;;;0.98;0.50;;;23.20;44.80;;;;;;6292516;28;20481;-54
2023/05/27 04:00:39;;;;;;;1.13;0.60;;;22.70;44.50;;;;;;6291573;28;20052;-55
2023/05/27 04:03:41;;;;;;;0.80;0.65;;;23.10;44.70;;;;;;6292763;28;20040;-53
2023/05/27 04:06:43;;;;;;;0.85;0.60;;;23.00;44.70;;;;;;6292210;28;20077;-53
2023/05/27 04:09:45;;;;;;;0.80;0.57;;;22.80;44.50;;;;;;6292451;28;20043;-53
2023/05/27 04:12:47;;;;;;;0.85;0.55;;;23.10;44.70;;;;;;6291935;28;20066;-55
2023/05/27 04:15:48;;;;;;;0.93;0.50;;;23.10;44.60;;;;;;6291231;28;20055;-51
2023/05/27 04:18:51;;;;;;;0.75;0.65;;;22.90;44.60;;;;;;6291227;28;20045;-55
2023/05/27 04:21:52;;;;;;;1.02;0.60;;;22.70;44.40;;;;;;6290684;28;20037;-53
2023/05/27 04:24:54;;;;;;;0.80;0.50;;;23.10;44.60;;;;;;6291129;28;20074;-54
2023/05/27 04:27:58;;;;;;;0.82;0.60;;;22.90;44.50;;;;;;6290872;28;20041;-53
2023/05/27 04:31:04;;;;;;;1.23;0.70;;;23.10;44.60;;;;;;6290841;28;20070;-52
2023/05/27 04:34:13;;;;;;;0.65;0.45;;;23.00;44.50;;;;;;6290560;28;20032;-53
2023/05/27 04:37:18;;;;;;;1.17;0.60;;;23.10;44.50;;;;;;6290132;28;20538;-54
2023/05/27 04:40:23;;;;;;;1.23;0.70;;;22.80;44.30;;;;;;6290439;28;20060;-54
2023/05/27 04:43:42;;;;;;;0.55;0.47;;;22.80;44.30;;;;;;6290600;28;20052;-53
2023/05/27 04:46:45;;;;;;;0.93;0.52;;;22.70;44.20;;;;;;6292183;28;20060;-54
2023/05/27 04:49:47;;;;;;;0.93;0.52;;;23.10;44.50;;;;;;6289609;28;20040;-56
2023/05/27 04:52:53;;;;;;;0.63;0.40;;;23.10;44.40;;;;;;6288680;28;20033;-55
2023/05/27 04:55:57;;;;;;;0.50;0.40;;;22.80;44.20;;;;;;6289424;28;20504;-54
2023/05/27 04:58:59;;;;;;;1.17;0.50;;;22.90;44.20;;;;;;6290435;28;20045;-55
2023/05/27 05:02:21;;;;;;;0.70;0.30;;;23.10;44.40;;;;;;6290485;28;20454;-51
2023/05/27 05:05:42;;;;;;;0.82;0.52;;;23.10;44.40;;;;;;6288726;28;20045;-53
2023/05/27 05:08:44;;;;;;;0.75;0.60;;;23.30;44.60;;;;;;6290141;28;20064;-53
2023/05/27 05:11:47;;;;;;;1.33;0.70;;;22.70;44.20;;;;;;6290030;28;20495;-54
2023/05/27 05:14:52;;;;;;;0.68;0.50;;;22.60;44.20;;;;;;6289281;28;20040;-55
2023/05/27 05:17:55;;;;;;;1.27;0.60;;;23.00;44.30;;;;;;6289230;28;20052;-53
2023/05/27 05:21:01;;;;;;;0.70;0.40;;;22.90;44.40;;;;;;6288874;28;20240;-53
2023/05/27 05:24:09;;;;;;;1.10;0.63;;;23.00;44.40;;;;;;6289867;28;20033;-55
2023/05/27 05:27:13;;;;;;;0.77;0.50;;;22.90;44.50;;;;;;6289724;28;20436;-53
2023/05/27 05:30:16;;;;;;;0.80;0.50;;;22.50;44.10;;;;;;6288899;28;20111;-54
2023/05/27 05:33:18;;;;;;;0.73;0.60;;;23.00;44.40;;;;;;6289420;28;20043;-54
2023/05/27 05:36:20;;;;;;;0.60;0.50;;;23.00;44.50;;;;;;6289168;28;20036;-54
2023/05/27 05:39:32;;;;;;;1.02;0.75;;;22.80;44.40;;;;;;6289235;28;20036;-54
2023/05/27 05:42:34;;;;;;;1.13;0.70;;;22.90;44.40;;;;;;6289096;28;20040;-54
2023/05/27 05:45:37;;;;;;;1.08;0.88;;;23.10;44.60;;;;;;6289285;28;20756;-54
2023/05/27 05:48:38;;;;;;;0.73;0.40;;;22.90;44.50;;;;;;6288083;28;20609;-55
2023/05/27 05:51:43;;;;;;;1.10;0.60;;;23.10;44.60;;;;;;6289267;28;20036;-53
2023/05/27 05:54:45;;;;;;;0.80;0.50;;;23.00;44.20;;;;;;6288724;28;20032;-54
2023/05/27 05:57:46;;;;;;;1.10;0.70;;;23.00;45.30;;;;;;6288711;28;20107;-52
2023/05/27 06:00:49;;;;;;;1.08;0.57;;;23.00;44.60;;;;;;6286549;28;20036;-53
2023/05/27 06:04:09;;;;;;;0.90;0.60;;;23.20;44.80;;;;;;6287670;28;20040;-54
2023/05/27 06:07:18;;;;;;;0.90;0.50;;;23.00;44.30;;;;;;6287986;28;20039;-53
2023/05/27 06:10:25;;;;;;;0.80;0.50;;;23.10;44.70;;;;;;6287916;28;20037;-55
2023/05/27 06:13:27;;;;;;;1.20;0.60;;;22.90;44.60;;;;;;6288385;28;20044;-53
2023/05/27 06:16:33;;;;;;;1.20;0.70;;;23.10;44.80;;;;;;6287998;28;20032;-54
2023/05/27 06:19:34;;;;;;;0.82;0.50;;;22.70;44.50;;;;;;6287359;28;20040;-55
2023/05/27 06:22:39;;;;;;;1.13;0.60;;;23.00;45.40;;;;;;6288165;28;20623;-52
2023/05/27 06:26:01;;;;;;;1.15;0.55;;;22.90;44.80;;;;;;6287938;28;20127;-52
2023/05/27 06:29:10;;;;;;;0.50;0.50;;;23.10;44.90;;;;;;6287052;28;20534;-54
2023/05/27 06:32:12;;;;;;;1.13;0.70;;;22.90;44.80;;;;;;6286979;28;20037;-55
2023/05/27 06:35:14;;;;;;;0.82;0.60;;;22.90;44.80;;;;;;6287317;28;20709;-54
2023/05/27 06:38:15;;;;;;;1.00;0.70;;;22.90;44.80;;;;;;6288488;28;20078;-53
2023/05/27 06:41:18;;;;;;;1.20;0.60;;;22.80;44.80;;;;;;6288492;28;20068;-54
2023/05/27 06:44:39;;;;;;;1.70;0.80;;;22.90;44.80;;;;;;6288450;28;20040;-54
2023/05/27 06:47:50;;;;;;;0.82;0.73;;;23.10;45.00;;;;;;6288128;28;20457;-56
2023/05/27 06:50:53;;;;;;;0.95;0.80;;;22.80;44.80;;;;;;6288252;28;20043;-52
2023/05/27 06:53:55;;;;;;;0.80;0.70;;;23.20;45.00;;;;;;6288139;28;20040;-54
2023/05/27 06:57:02;;;;;;;0.52;0.40;;;23.10;44.90;;;;;;6287982;28;20032;-52
2023/05/27 07:00:23;;;;;;;0.85;0.52;;;22.90;44.80;;;;;;6289292;28;20166;-54
2023/05/27 07:03:44;;;;;;;0.80;0.50;;;23.10;44.90;;;;;;6291444;28;20453;-52
2023/05/27 07:06:50;;;;;;;0.70;0.60;;;23.10;45.00;;;;;;6290613;28;20029;-52
2023/05/27 07:09:51;;;;;;;0.70;0.50;;;23.10;44.90;;;;;;6291324;28;20047;-55
2023/05/27 07:12:53;;;;;;;;;;;23.00;44.90;;;;;;6291906;28;20029;-52
2023/05/27 07:16:00;;;;;;;0.57;0.47;;;23.20;45.10;;;;;;6291170;28;19920;-54
2023/05/27 07:19:05;;;;;;;0.95;0.60;;;22.90;44.90;;;;;;6291622;28;20033;-53
2023/05/27 07:22:12;;;;;;;0.93;0.60;;;22.80;44.80;;;;;;6290282;28;20067;-54
2023/05/27 07:25:14;;;;;;;1.20;0.50;;;23.10;45.00;;;;;;6290600;28;20067;-53
2023/05/27 07:28:16;;;;;;;0.70;0.45;;;23.20;45.10;;;;;;6290726;28;20040;-55
2023/05/27 07:31:23;;;;;;;1.00;0.73;;;23.20;45.10;;;;;;6290232;28;20036;-53
2023/05/27 07:34:31;;;;;;;0.75;0.52;;;23.10;45.00;;;;;;6289993;28;20075;-53
2023/05/27 07:37:35;;;;;;;1.35;0.60;;;23.10;45.00;;;;;;6289517;28;20051;-53
2023/05/27 07:40:38;;;;;;;0.80;0.52;;;23.20;44.60;;;;;;6291043;28;20083;-53
2023/05/27 07:43:40;;;;;;;1.02;0.80;;;23.30;45.10;;;;;;6291067;28;20037;-52
2023/05/27 07:46:41;;;;;;;1.13;0.60;;;23.20;45.00;;;;;;6291154;28;20153;-52
2023/05/27 07:49:43;;;;;;;1.40;0.80;;;22.90;44.90;;;;;;6289881;28;20112;-53
2023/05/27 07:52:59;;;;;;;1.10;0.70;;;23.20;45.10;;;;;;6290865;28;20056;-53
2023/05/27 07:56:05;;;;;;;1.00;0.50;;;23.20;45.10;;;;;;6290467;28;20122;-53
2023/05/27 07:59:09;;;;;;;0.77;0.50;;;23.20;45.10;;;;;;6290043;28;20049;-53
2023/05/27 08:02:11;;;;;;;0.60;0.45;;;23.20;45.10;;;;;;6289917;28;20056;-53
2023/05/27 08:05:16;;;;;;;1.00;0.80;;;23.20;45.20;;;;;;6289881;28;20041;-53
2023/05/27 08:08:31;;;;;;;0.90;0.60;;;23.20;45.30;;;;;;6290215;28;20039;-53
2023/05/27 08:11:48;;;;;;;0.73;0.60;;;23.30;45.30;;;;;;6289388;28;20036;-51
2023/05/27 08:15:09;;;;;;;0.75;0.60;;;23.20;45.40;;;;;;6289688;28;20053;-53
2023/05/27 08:18:17;;;;;;;0.73;0.60;;;23.30;45.30;;;;;;6290157;28;20029;-52
2023/05/27 08:21:39;;;;;;;1.05;0.80;;;23.30;45.40;;;;;;6289412;28;20041;-55
2023/05/27 08:24:59;;;;;;;0.70;0.50;;;23.30;45.50;;;;;;6289871;28;20180;-54
2023/05/27 08:28:11;;;;;;;1.10;0.73;;;23.30;45.50;;;;;;6289585;28;20078;-54
2023/05/27 08:31:29;;;;;;;0.55;0.55;;;23.40;45.60;;;;;;6290029;28;20036;-52
2023/05/27 08:34:33;;;;;;;1.35;0.70;;;23.40;45.60;;;;;;6290034;28;20079;-54
2023/05/27 08:37:36;;;;;;;1.08;0.60;;;23.40;45.70;;;;;;6288087;28;20040;-54
2023/05/27 08:40:38;;;;;;;0.63;0.50;;;23.40;45.60;;;;;;6289657;28;20041;-52
2023/05/27 08:43:42;;;;;;;0.95;0.60;;;23.40;45.80;;;;;;6254759;28;20549;-55
2023/05/27 08:46:45;;;;;;;0.93;0.60;;;23.40;45.70;;;;;;6290084;28;20068;-52
2023/05/27 08:49:47;;;;;;;0.90;0.70;;;23.50;45.80;;;;;;6290370;28;20059;-51
2023/05/27 08:52:53;;;;;;;1.08;0.70;;;23.40;45.90;;;;;;6290542;28;20032;-58
2023/05/27 08:56:00;;;;;;;0.77;0.60;;;23.60;45.90;;;;;;6271725;28;20075;-57
2023/05/27 08:59:01;;;;;;;0.68;0.60;;;23.60;46.00;;;;;;6290726;28;20036;-58
2023/05/27 09:02:09;;;;;;;1.13;0.60;;;23.60;46.00;;;;;;6288936;28;20052;-57
2023/05/27 09:05:14;;;;;;;1.13;0.80;;;23.60;46.10;;;;;;6288588;28;20705;-58
2023/05/27 09:08:16;;;;;;;0.80;0.60;;;23.60;46.00;;;;;;6289185;28;20033;-58
2023/05/27 09:11:21;;;;;;;0.70;0.50;;;23.60;46.20;;;;;;6289131;28;20073;-57
2023/05/27 09:14:23;;;;;;;0.80;0.70;;;23.80;46.30;;;;;;6287838;28;20392;-58
2023/05/27 09:17:24;;;;;;;1.13;0.70;;;23.70;46.40;;;;;;6289137;28;20147;-57
2023/05/27 09:20:27;;;;;;;0.90;0.70;;;23.50;46.40;;;;;;6287789;28;20120;-58
2023/05/27 09:23:29;;;;;;;0.82;0.60;;;23.80;46.70;;;;;;6270970;28;20123;-58
2023/05/27 09:26:33;;;;;;;0.70;0.60;;;23.50;46.60;;;;;;6288613;28;20045;-58
2023/05/27 09:29:39;;;;;;;1.02;0.60;;;23.70;46.80;;;;;;6289298;28;20609;-57
2023/05/27 09:32:42;;;;;;;0.93;0.80;;;23.50;46.90;;;;;;6289113;28;20052;-57
2023/05/27 09:35:43;;;;;;;1.00;0.73;;;23.90;47.20;;;;;;6288830;28;20438;-57
2023/05/27 09:38:46;;;;;;;1.02;0.80;;;23.70;47.20;;;;;;6288485;28;20047;-57
2023/05/27 09:41:50;;;;;;;0.90;0.60;;;23.90;47.40;;;;;;6289097;28;20086;-56
2023/05/27 09:44:57;;;;;;;0.90;0.77;;;23.70;47.40;;;;;;6288776;28;20037;-57
2023/05/27 09:48:01;;;;;;;1.17;0.80;;;23.90;47.60;;;;;;6288055;28;20032;-57
2023/05/27 09:51:03;;;;;;;1.05;0.80;;;24.00;47.70;;;;;;6288004;28;20040;-56
2023/05/27 09:54:07;;;;;;;1.23;0.68;;;24.00;47.70;;;;;;6288451;28;20086;-57
2023/05/27 09:57:10;;;;;;;0.77;0.73;;;24.10;47.90;;;;;;6287226;28;20045;-55
2023/05/27 10:00:13;;;;;;;0.98;0.80;;;24.10;48.00;;;;;;6286750;28;20530;-56
2023/05/27 10:03:16;;;;;;;1.80;0.77;;;24.20;48.00;;;;;;6288898;28;20039;-56
2023/05/27 10:06:19;;;;;;;1.10;0.65;;;24.10;48.00;;;;;;6287748;28;20032;-56
2023/05/27 10:09:22;;;;;;;0.95;0.60;;;24.00;48.10;;;;;;6287964;28;20033;-57
2023/05/27 10:12:25;;;;;;;1.00;0.80;;;24.10;48.20;;;;;;6287020;28;20442;-55
2023/05/27 10:15:28;;;;;;;0.65;0.63;;;24.30;48.30;;;;;;6287365;28;20039;-56
2023/05/27 10:18:30;;;;;;;1.10;0.68;;;24.20;48.30;;;;;;6286158;28;20093;-57
2023/05/27 10:21:42;;;;;;;1.23;0.80;;;24.20;48.30;;;;;;6286992;28;20036;-56
2023/05/27 10:24:47;;;;;;;;;;;24.30;48.40;;;;;;6287935;28;20036;-57
2023/05/27 10:27:49;;;;;;;1.05;0.70;;;24.00;48.20;;;;;;6285813;28;20470;-56
2023/05/27 10:30:53;;;;;;;1.15;0.70;;;24.20;48.20;;;;;;6286120;28;20041;-56
2023/05/27 10:33:58;;;;;;;1.38;0.77;;;24.20;48.30;;;;;;6288845;28;20040;-57
2023/05/27 10:37:00;;;;;;;0.50;0.50;;;24.30;48.50;;;;;;6290540;28;20036;-57
2023/05/27 10:40:06;;;;;;;1.10;0.93;;;24.30;48.50;;;;;;6290337;28;20040;-57
2023/05/27 10:43:15;;;;;;;0.98;0.60;;;24.30;48.60;;;;;;6290203;28;20029;-56
2023/05/27 10:46:17;;;;;;;1.10;0.90;;;24.40;48.60;;;;;;6291383;28;20674;-54
2023/05/27 10:49:23;;;;;;;1.17;1.00;;;24.40;48.60;;;;;;6291921;28;20698;-56
2023/05/27 10:52:31;;;;;;;1.20;1.10;;;24.50;48.70;;;;;;6290419;28;20040;-57
2023/05/27 10:55:33;;;;;;;1.10;1.00;;;24.60;48.70;;;;;;6290203;28;20044;-56
2023/05/27 10:58:36;;;;;;;1.60;1.08;;;24.40;48.60;;;;;;6291542;28;20040;-56
2023/05/27 11:01:38;;;;;;;2.30;1.00;;;24.30;48.60;;;;;;6289597;28;20040;-55
2023/05/27 11:04:40;;;;;;;1.70;1.38;;;24.50;48.80;;;;;;6291033;28;20577;-57
2023/05/27 11:07:42;;;;;;;1.70;1.08;;;24.50;48.90;;;;;;6291004;28;20041;-56
2023/05/27 11:10:44;;;;;;;1.42;1.20;;;24.50;49.00;;;;;;6290166;28;20391;-54
2023/05/27 11:13:48;;;;;;;1.88;1.30;;;24.50;49.10;;;;;;6291483;28;20124;-57
2023/05/27 11:16:51;;;;;;;1.55;1.10;;;24.40;49.00;;;;;;6291630;28;20032;-56
2023/05/27 11:19:54;;;;;;;1.30;1.10;;;24.40;48.90;;;;;;6291631;28;20033;-57
2023/05/27 11:22:56;;;;;;;0.93;0.80;;;24.30;48.90;;;;;;6290586;28;20056;-54
2023/05/27 11:25:58;;;;;;;1.25;0.90;;;24.50;48.90;;;;;;6289137;28;20814;-56
2023/05/27 11:29:00;;;;;;;1.65;1.20;;;24.40;48.80;;;;;;6290240;28;20036;-56
2023/05/27 11:32:02;;;;;;;1.20;0.90;;;24.10;48.70;;;;;;6289853;28;20063;-56
2023/05/27 11:35:12;;;;;;;1.60;1.10;;;24.30;48.70;;;;;;6291184;28;20564;-57
2023/05/27 11:38:17;;;;;;;0.95;0.90;;;24.40;48.70;;;;;;6289687;28;20032;-54
2023/05/27 11:41:21;;;;;;;1.23;1.05;;;24.30;48.70;;;;;;6290486;28;20055;-56
2023/05/27 11:44:24;;;;;;;1.25;1.05;;;24.30;48.70;;;;;;6289688;28;20487;-56
2023/05/27 11:47:28;;;;;;;1.08;0.82;;;24.20;48.60;;;;;;6290060;28;20041;-56
2023/05/27 11:50:30;;;;;;;1.10;1.00;;;24.30;48.70;;;;;;6291078;28;20102;-55
2023/05/27 11:53:31;;;;;;;1.10;1.00;;;24.20;48.60;;;;;;6289059;28;20033;-57
2023/05/27 11:56:33;;;;;;;0.98;0.82;;;24.30;48.60;;;;;;6290075;28;20063;-57
2023/05/27 11:59:35;;;;;;;1.00;0.90;;;24.40;48.70;;;;;;6290237;28;20041;-54
2023/05/27 12:02:37;;;;;;;1.10;1.00;;;24.40;48.70;;;;;;6289806;28;20290;-57
2023/05/27 12:05:38;;;;;;;1.40;0.95;;;24.40;48.60;;;;;;6290151;28;20124;-55
2023/05/27 12:08:41;;;;;;;1.55;1.00;;;24.40;48.60;;;;;;6289663;28;20634;-55
2023/05/27 12:11:43;;;;;;;1.10;1.00;;;24.50;48.70;;;;;;6289826;28;20036;-56
2023/05/27 12:14:45;;;;;;;1.48;1.15;;;24.40;48.60;;;;;;6290203;28;20093;-56
2023/05/27 12:17:47;;;;;;;1.33;1.20;;;24.30;48.50;;;;;;6289179;28;20041;-56
2023/05/27 12:20:49;;;;;;;1.10;1.00;;;24.40;48.60;;;;;;6290233;28;20431;-56
2023/05/27 12:23:51;;;;;;;1.13;1.00;;;24.50;48.60;;;;;;6290585;28;20170;-56
2023/05/27 12:26:53;;;;;;;1.20;1.02;;;24.40;48.50;;;;;;6289154;28;20236;-57
2023/05/27 12:29:55;;;;;;;1.08;0.98;;;24.30;48.50;;;;;;6287363;28;20040;-56
2023/05/27 12:32:57;;;;;;;1.20;1.02;;;24.40;48.60;;;;;;6288552;28;20388;-55
2023/05/27 12:36:00;;;;;;;1.17;1.08;;;24.20;48.50;;;;;;6286683;28;20082;-54
2023/05/27 12:39:01;;;;;;;1.27;1.00;;;24.40;48.60;;;;;;6288179;28;20529;-56
2023/05/27 12:42:03;;;;;;;1.17;1.08;;;24.40;48.60;;;;;;6289201;28;20121;-56
2023/05/27 12:45:07;;;;;;;1.13;0.98;;;24.30;48.60;;;;;;6288829;28;20032;-56
2023/05/27 12:48:08;;;;;;;1.23;1.13;;;24.50;48.70;;;;;;6253923;28;20535;-56
2023/05/27 12:51:11;;;;;;;1.00;0.90;;;24.40;48.70;;;;;;6288814;28;20082;-57
2023/05/27 12:54:15;;;;;;;1.77;1.20;;;24.40;48.70;;;;;;6288723;28;20102;-56
2023/05/27 12:57:17;;;;;;;1.25;1.10;;;24.30;48.70;;;;;;6288454;28;20070;-56
2023/05/27 13:00:20;;;;;;;1.00;0.90;;;24.40;48.70;;;;;;6288194;28;20036;-56
2023/05/27 13:03:22;;;;;;;1.27;1.00;;;24.40;48.60;;;;;;6286193;28;20053;-55
2023/05/27 13:06:23;;;;;;;0.82;0.70;;;24.30;48.60;;;;;;6286270;28;20125;-56
2023/05/27 13:09:25;;;;;;;0.82;0.80;;;24.50;48.60;;;;;;6287851;28;20033;-56
2023/05/27 13:12:27;;;;;;;1.63;1.00;;;24.40;48.60;;;;;;6288917;28;20040;-57
2023/05/27 13:15:31;;;;;;;1.00;0.90;;;24.30;48.50;;;;;;6288573;28;20071;-56
2023/05/27 13:18:32;;;;;;;1.08;0.98;;;24.20;48.40;;;;;;6288856;28;20039;-55
2023/05/27 13:21:34;;;;;;;1.23;1.00;;;24.30;48.50;;;;;;6288697;28;20049;-55
2023/05/27 13:24:36;;;;;;;1.30;1.00;;;24.30;48.50;;;;;;6288070;28;20051;-55
2023/05/27 13:27:38;;;;;;;1.10;0.90;;;24.30;48.50;;;;;;6288474;28;20040;-54
2023/05/27 13:30:40;;;;;;;1.20;0.90;;;24.30;48.50;;;;;;6287907;28;20131;-57
2023/05/27 13:33:42;;;;;;;0.75;0.70;;;24.40;48.50;;;;;;6288129;28;20064;-55
2023/05/27 13:36:43;;;;;;;0.93;0.85;;;24.40;48.50;;;;;;6286060;28;20484;-55
2023/05/27 13:39:46;;;;;;;1.15;1.00;;;24.50;48.60;;;;;;6288394;28;20086;-55
2023/05/27 13:42:51;;;;;;;1.30;1.10;;;24.50;48.60;;;;;;6288201;28;20040;-56
2023/05/27 13:45:52;;;;;;;0.93;0.90;;;24.40;48.50;;;;;;6288304;28;20074;-56
2023/05/27 13:48:54;;;;;;;0.88;0.88;;;24.50;49.10;;;;;;6287855;28;20048;-56
2023/05/27 13:51:56;;;;;;;0.95;0.85;;;24.50;48.50;;;;;;6287511;28;20040;-56
2023/05/27 13:54:57;;;;;;;1.10;1.00;;;24.30;48.30;;;;;;6287661;28;20052;-56
2023/05/27 13:57:59;;;;;;;1.00;0.90;;;24.50;48.40;;;;;;6287018;28;20545;-55
2023/05/27 14:01:02;;;;;;;0.88;0.77;;;24.30;48.20;;;;;;6286429;28;20476;-56
2023/05/27 14:04:04;;;;;;;1.20;1.00;;;24.40;48.30;;;;;;6287640;28;20348;-56
2023/05/27 14:07:05;;;;;;;1.35;1.08;;;24.30;48.20;;;;;;6288281;28;20064;-56
2023/05/27 14:10:09;;;;;;;1.00;0.90;;;24.40;48.30;;;;;;6286603;28;20332;-56
2023/05/27 14:13:12;;;;;;;1.10;0.98;;;24.20;48.20;;;;;;6286434;28;20537;-56
2023/05/27 14:16:13;;;;;;;1.00;0.90;;;24.40;48.30;;;;;;6286664;28;20048;-56
2023/05/27 14:19:14;;;;;;;1.33;1.05;;;24.20;48.10;;;;;;6286848;28;20352;-56
2023/05/27 14:22:16;;;;;;;1.13;0.98;;;24.50;48.30;;;;;;6287275;28;20043;-56
2023/05/27 14:25:20;;;;;;;1.38;1.17;;;24.30;48.10;;;;;;6287245;28;20113;-57
2023/05/27 14:28:22;;;;;;;1.30;1.05;;;24.30;48.10;;;;;;6287022;28;20037;-54
2023/05/27 14:31:23;;;;;;;1.05;0.95;;;24.40;48.10;;;;;;6284394;28;20406;-56
2023/05/27 14:34:25;;;;;;;1.10;0.90;;;24.40;48.40;;;;;;6286752;28;20320;-56
2023/05/27 14:37:26;;;;;;;1.23;1.10;;;24.30;48.00;;;;;;6287401;28;20036;-54
2023/05/27 14:40:28;;;;;;;1.00;0.90;;;24.40;48.00;;;;;;6287476;28;20332;-55
2023/05/27 14:43:30;;;;;;;0.85;0.73;;;24.20;47.70;;;;;;6287439;28;20041;-57
2023/05/27 14:46:31;;;;;;;1.00;0.90;;;24.30;47.70;;;;;;6286049;28;20044;-56
2023/05/27 14:49:33;;;;;;;1.00;0.90;;;24.30;47.60;;;;;;6282398;28;20064;-55
2023/05/27 14:52:36;;;;;;;1.42;1.20;;;24.00;48.00;;;;;;6286952;28;20037;-56
2023/05/27 14:55:43;;;;;;;1.20;0.90;;;24.50;47.60;;;;;;6287613;28;20691;-57
2023/05/27 14:58:47;;;;;;;1.10;1.00;;;24.40;47.50;;;;;;6287283;28;20339;-57
2023/05/27 15:01:48;;;;;;;1.10;0.93;;;24.50;47.50;;;;;;6287036;28;20118;-56
2023/05/27 15:04:50;;;;;;;1.20;1.10;;;24.30;48.10;;;;;;6287334;28;20064;-56
2023/05/27 15:07:51;;;;;;;1.08;0.98;;;24.40;47.60;;;;;;6283244;28;20044;-56
2023/05/27 15:10:53;;;;;;;1.10;1.00;;;24.40;47.60;;;;;;6286262;28;20455;-56
2023/05/27 15:13:55;;;;;;;1.27;1.17;;;24.30;47.50;;;;;;6286810;28;20032;-56
2023/05/27 15:16:57;;;;;;;1.20;1.10;;;24.40;47.60;;;;;;6286822;28;20039;-56
2023/05/27 15:19:58;;;;;;;1.33;1.00;;;24.20;47.50;;;;;;6288237;28;20043;-57
2023/05/27 15:23:00;;;;;;;1.23;1.00;;;24.30;47.60;;;;;;6287032;28;20037;-56
2023/05/27 15:26:01;;;;;;;1.30;1.17;;;24.30;47.60;;;;;;6291135;28;20455;-57
2023/05/27 15:29:04;;;;;;;1.00;0.88;;;24.30;47.70;;;;;;6291253;28;20407;-55
2023/05/27 15:32:05;;;;;;;1.13;0.90;;;24.50;47.80;;;;;;6291105;28;20041;-56
2023/05/27 15:35:08;;;;;;;0.90;0.85;;;24.30;47.60;;;;;;6290753;28;20040;-57
2023/05/27 15:38:13;;;;;;;0.95;0.88;;;24.30;47.60;;;;;;6290889;28;20495;-57
2023/05/27 15:41:15;;;;;;;1.15;0.90;;;24.40;47.70;;;;;;6285600;28;20037;-56
2023/05/27 15:44:18;;;;;;;1.77;1.40;;;24.50;47.80;;;;;;6290633;28;20415;-56
2023/05/27 15:47:20;;;;;;;1.08;0.98;;;24.30;47.60;;;;;;6290574;28;20040;-54
2023/05/27 15:50:25;;;;;;;1.20;1.08;;;24.40;47.70;;;;;;6290642;28;20033;-57
2023/05/27 15:53:27;;;;;;;1.23;1.13;;;24.30;47.50;;;;;;6290262;28;20476;-56
2023/05/27 15:56:28;;;;;;;0.93;0.80;;;24.50;47.70;;;;;;6290516;28;20041;-56
2023/05/27 15:59:33;;;;;;;1.00;0.80;;;24.40;47.70;;;;;;6290409;28;20316;-56